Time;durP1;ratioP1;P1;durP2;ratioP2;P2;SDS_P1;SDS_P2;PMS_P1;PMS_P2;Temp;Humidity;BMP_temperature;BMP_pressure;BME280_temperature;BME280_humidity;BME280_pressure;Samples;Min_cycle;Max_cycle;Signal;HPM_P1;HPM_P2
2023/12/31 00:02:43;;;;;;;1.48;1.05;;;;;;;7.62;63.37;99256.19;10522495;28;20048;-67
2023/12/31 00:07:45;;;;;;;5.00;1.20;;;;;;;7.44;63.61;99235.59;10521952;28;20056;-67
2023/12/31 00:12:48;;;;;;;1.58;1.02;;;;;;;7.26;63.78;99229.72;10537483;27;20071;-67
2023/12/31 00:17:50;;;;;;;3.10;1.45;;;;;;;7.18;63.57;99229.31;10521403;28;20404;-67
2023/12/31 00:22:52;;;;;;;4.30;1.40;;;;;;;7.08;64.21;99223.78;10518817;28;20044;-66
2023/12/31 00:27:54;;;;;;;2.25;1.40;;;;;;;7.04;64.16;99216.25;10502778;28;20052;-67
2023/12/31 00:32:56;;;;;;;1.48;1.02;;;;;;;7.04;63.98;99211.88;10501576;28;20048;-67
2023/12/31 00:37:58;;;;;;;1.92;1.17;;;;;;;6.93;63.98;99206.47;10519667;28;20048;-67
2023/12/31 00:43:03;;;;;;;2.20;1.20;;;;;;;6.87;64.07;99203.38;10495487;28;20043;-66
2023/12/31 00:48:06;;;;;;;2.55;1.25;;;;;;;6.82;63.99;99184.56;10495787;28;20461;-66
2023/12/31 00:53:08;;;;;;;3.28;1.02;;;;;;;6.73;64.32;99175.56;10488488;28;20047;-66
2023/12/31 00:58:10;;;;;;;2.00;1.20;;;;;;;6.65;64.23;99167.38;10501264;28;20044;-66
2023/12/31 01:03:13;;;;;;;2.00;1.00;;;;;;;6.45;64.31;99154.63;10500675;28;20040;-66
2023/12/31 01:08:15;;;;;;;2.55;1.23;;;;;;;6.38;64.66;99152.44;10534525;28;20040;-66
2023/12/31 01:13:17;;;;;;;1.65;1.00;;;;;;;6.19;64.58;99144.78;10518495;28;20041;-65
2023/12/31 01:18:19;;;;;;;0.80;0.80;;;;;;;6.11;64.68;99136.56;10500186;28;20131;-66
2023/12/31 01:23:21;;;;;;;1.40;0.95;;;;;;;6.07;64.87;99138.50;10500642;28;20101;-65
2023/12/31 01:28:23;;;;;;;1.88;1.10;;;;;;;6.08;65.35;99129.78;10496155;28;20080;-66
2023/12/31 01:33:25;;;;;;;2.88;1.52;;;;;;;6.03;65.49;99123.19;10499057;28;20032;-66
2023/12/31 01:38:28;;;;;;;1.25;1.00;;;;;;;6.01;65.45;99118.06;10516441;28;20060;-66
2023/12/31 01:43:30;;;;;;;2.60;1.27;;;;;;;6.01;65.45;99102.50;10516950;28;20043;-65
2023/12/31 01:48:33;;;;;;;3.08;1.67;;;;;;;5.95;65.68;99094.22;10517013;28;20064;-65
2023/12/31 01:53:35;;;;;;;5.68;1.50;;;;;;;5.92;65.51;99092.59;10517216;28;20377;-66
2023/12/31 01:58:37;;;;;;;2.08;1.30;;;;;;;5.91;65.55;99093.53;10482472;28;20348;-67
2023/12/31 02:03:39;;;;;;;3.90;1.35;;;;;;;5.68;65.93;99078.38;10498520;28;20052;-66
2023/12/31 02:08:42;;;;;;;1.77;1.20;;;;;;;5.49;66.75;99065.53;10516293;28;20125;-66
2023/12/31 02:13:44;;;;;;;2.95;1.50;;;;;;;5.56;66.56;99063.44;10515703;28;20123;-66
2023/12/31 02:18:46;;;;;;;2.50;1.33;;;;;;;5.61;66.02;99060.63;10497111;28;20048;-66
2023/12/31 02:23:49;;;;;;;2.25;1.23;;;;;;;5.38;66.19;99052.31;10515977;28;20056;-66
2023/12/31 02:28:51;;;;;;;3.65;1.60;;;;;;;5.32;66.60;99031.03;10515540;28;20052;-66
2023/12/31 02:33:53;;;;;;;4.13;1.60;;;;;;;5.38;66.67;99012.56;10515559;28;20043;-66
2023/12/31 02:38:55;;;;;;;2.80;1.58;;;;;;;5.40;66.27;98998.63;10515968;28;20521;-66
2023/12/31 02:43:57;;;;;;;3.03;1.45;;;;;;;5.33;66.20;98988.66;10497525;28;20123;-66
2023/12/31 02:48:59;;;;;;;2.50;1.50;;;;;;;5.23;66.54;98971.91;10539788;28;20040;-65
2023/12/31 02:54:01;;;;;;;2.88;1.70;;;;;;;5.18;67.12;98977.34;10503857;28;20069;-66
2023/12/31 02:59:04;;;;;;;2.47;1.52;;;;;;;5.14;67.91;98959.44;10505539;28;20186;-66
2023/12/31 03:04:07;;;;;;;4.05;1.50;;;;;;;5.16;69.35;98945.50;10505985;28;20105;-65
2023/12/31 03:09:09;;;;;;;5.07;1.75;;;;;;;5.33;68.29;98942.00;10523704;28;20127;-65
2023/12/31 03:14:13;;;;;;;4.20;1.92;;;;;;;5.46;68.07;98927.44;10523223;28;20071;-65
2023/12/31 03:19:17;;;;;;;4.22;2.10;;;;;;;5.68;67.37;98935.69;10522210;28;20166;-66
2023/12/31 03:24:22;;;;;;;4.65;2.00;;;;;;;5.71;67.06;98927.75;10538145;28;20052;-66
2023/12/31 03:29:24;;;;;;;4.15;1.80;;;;;;;5.72;66.66;98929.41;10522318;28;20052;-65
2023/12/31 03:34:26;;;;;;;4.03;1.80;;;;;;;5.72;66.55;98919.03;10504192;28;20056;-65
2023/12/31 03:39:28;;;;;;;4.93;2.67;;;;;;;5.61;66.48;98912.78;10522229;28;20510;-65
2023/12/31 03:44:30;;;;;;;8.35;2.28;;;;;;;5.38;66.99;98901.09;10521770;28;20098;-65
2023/12/31 03:49:32;;;;;;;4.43;2.33;;;;;;;5.36;67.92;98889.97;10521753;28;20139;-66
2023/12/31 03:54:34;;;;;;;5.35;2.38;;;;;;;5.47;67.57;98888.44;10504103;28;20547;-65
2023/12/31 03:59:37;;;;;;;6.40;2.65;;;;;;;5.62;67.20;98886.75;10520561;28;20076;-65
2023/12/31 04:04:39;;;;;;;3.60;1.85;;;;;;;5.60;66.92;98861.81;10520201;28;20062;-65
2023/12/31 04:09:41;;;;;;;5.40;2.50;;;;;;;5.47;67.11;98848.72;10519673;28;20140;-65
2023/12/31 04:14:43;;;;;;;5.75;2.05;;;;;;;5.47;67.29;98815.03;10535891;27;20055;-65
2023/12/31 04:19:45;;;;;;;5.40;2.33;;;;;;;5.46;67.78;98821.13;10518855;28;20910;-66
2023/12/31 04:24:47;;;;;;;3.75;2.38;;;;;;;5.45;67.73;98801.31;10519877;28;20087;-66
2023/12/31 04:29:49;;;;;;;4.15;2.25;;;;;;;5.51;67.70;98790.59;10501773;28;20097;-65
2023/12/31 04:34:51;;;;;;;3.03;1.95;;;;;;;5.61;66.83;98783.94;10520742;28;20443;-66
2023/12/31 04:39:53;;;;;;;4.15;1.92;;;;;;;5.54;66.66;98780.03;10519997;28;20059;-65
2023/12/31 04:44:59;;;;;;;4.30;1.73;;;;;;;5.54;66.69;98764.47;10501298;28;20539;-65
2023/12/31 04:50:05;;;;;;;3.72;2.05;;;;;;;5.47;67.23;98770.94;10502182;28;20043;-65
2023/12/31 04:55:07;;;;;;;4.50;2.45;;;;;;;5.68;67.13;98761.91;10518955;28;20054;-65
2023/12/31 05:00:11;;;;;;;4.22;2.30;;;;;;;5.75;66.86;98754.59;10486232;28;20044;-66
2023/12/31 05:05:13;;;;;;;2.80;1.65;;;;;;;5.90;66.68;98744.16;10486072;28;20058;-66
2023/12/31 05:10:15;;;;;;;3.67;2.20;;;;;;;5.84;66.94;98731.53;10519250;28;20124;-65
2023/12/31 05:15:17;;;;;;;3.15;1.98;;;;;;;6.05;66.53;98713.84;10518352;28;20052;-65
2023/12/31 05:20:19;;;;;;;4.43;2.47;;;;;;;6.17;66.24;98718.28;10534638;28;20048;-66
2023/12/31 05:25:21;;;;;;;4.35;2.22;;;;;;;6.16;66.26;98716.63;10518022;28;20090;-65
2023/12/31 05:30:23;;;;;;;3.50;1.73;;;;;;;6.28;65.98;98714.16;10518126;28;20255;-65
2023/12/31 05:35:25;;;;;;;4.82;2.40;;;;;;;6.37;65.74;98710.13;10518170;28;20055;-66
2023/12/31 05:40:27;;;;;;;4.05;2.08;;;;;;;6.44;65.52;98716.63;10517258;28;20052;-65
2023/12/31 05:45:30;;;;;;;3.55;1.83;;;;;;;6.52;65.23;98703.16;10497162;28;20436;-66
2023/12/31 05:50:32;;;;;;;3.53;1.95;;;;;;;6.42;65.18;98696.88;10499964;28;20093;-65
2023/12/31 05:55:34;;;;;;;4.88;1.83;;;;;;;6.55;65.07;98700.41;10516947;28;20111;-65
2023/12/31 06:00:36;;;;;;;4.38;2.45;;;;;;;6.69;64.71;98685.59;10516910;28;20062;-65
2023/12/31 06:05:38;;;;;;;3.17;1.98;;;;;;;6.63;64.44;98675.59;10516752;28;20115;-65
2023/12/31 06:10:40;;;;;;;3.60;2.08;;;;;;;6.65;64.73;98678.94;10516109;28;20126;-66
2023/12/31 06:15:43;;;;;;;2.85;1.80;;;;;;;6.63;64.58;98686.00;10497226;28;20058;-65
2023/12/31 06:20:45;;;;;;;3.92;1.95;;;;;;;6.67;64.62;98697.03;10513882;28;20091;-66
2023/12/31 06:25:46;;;;;;;5.18;3.08;;;;;;;6.81;64.36;98687.41;10497746;28;20054;-66
2023/12/31 06:30:48;;;;;;;3.28;1.60;;;;;;;7.00;63.96;98674.03;10497605;28;20060;-66
2023/12/31 06:35:51;;;;;;;4.32;1.90;;;;;;;7.12;63.59;98678.47;10513735;28;20561;-67
2023/12/31 06:40:53;;;;;;;2.72;1.70;;;;;;;7.22;63.28;98665.69;10497299;28;20050;-66
2023/12/31 06:45:54;;;;;;;2.92;1.88;;;;;;;7.18;62.79;98649.47;10514970;28;20131;-66
2023/12/31 06:50:56;;;;;;;4.00;1.92;;;;;;;7.19;63.08;98653.72;10514907;28;20812;-66
2023/12/31 06:56:05;;;;;;;3.45;1.80;;;;;;;7.13;62.92;98648.94;10522887;28;20517;-67
2023/12/31 07:01:07;;;;;;;5.13;1.90;;;;;;;6.90;63.54;98647.81;10510917;28;20040;-65
2023/12/31 07:06:10;;;;;;;4.35;2.30;;;;;;;6.92;63.49;98647.72;10508316;28;20040;-67
2023/12/31 07:11:14;;;;;;;2.75;1.75;;;;;;;6.88;63.38;98648.84;10511499;28;20040;-67
2023/12/31 07:16:16;;;;;;;4.43;2.00;;;;;;;6.97;63.25;98643.06;10506304;28;20127;-67
2023/12/31 07:21:22;;;;;;;3.65;1.90;;;;;;;6.97;63.39;98624.88;10506142;28;20123;-66
2023/12/31 07:26:28;;;;;;;2.92;1.60;;;;;;;7.12;63.11;98635.09;10467026;28;20039;-66
2023/12/31 07:31:30;;;;;;;2.20;1.50;;;;;;;7.32;62.57;98620.78;10504047;28;20633;-67
2023/12/31 07:36:32;;;;;;;4.72;2.25;;;;;;;7.43;62.47;98601.81;10513263;28;20052;-66
2023/12/31 07:41:34;;;;;;;3.50;1.55;;;;;;;7.52;62.46;98612.44;10515268;28;20048;-67
2023/12/31 07:46:37;;;;;;;2.35;1.50;;;;;;;7.55;62.13;98604.41;10496026;28;20040;-66
2023/12/31 07:51:39;;;;;;;2.85;1.73;;;;;;;7.61;62.12;98598.78;10509495;28;20787;-66
2023/12/31 07:56:41;;;;;;;2.85;1.63;;;;;;;7.66;61.88;98580.28;10509843;28;20813;-67
2023/12/31 08:01:43;;;;;;;2.33;1.55;;;;;;;7.86;61.95;98595.34;10512916;28;20066;-66
2023/12/31 08:06:45;;;;;;;3.92;1.80;;;;;;;7.85;61.98;98581.47;10494052;28;20036;-66
2023/12/31 08:11:47;;;;;;;2.30;1.50;;;;;;;7.87;61.90;98584.84;10515017;28;20181;-66
2023/12/31 08:16:50;;;;;;;3.45;1.50;;;;;;;7.91;61.66;98570.66;10514052;28;20393;-67
2023/12/31 08:21:52;;;;;;;3.40;1.80;;;;;;;7.88;61.83;98570.88;10478938;28;20488;-65
2023/12/31 08:26:54;;;;;;;2.80;1.60;;;;;;;7.81;61.83;98551.41;10512155;28;20113;-66
2023/12/31 08:31:56;;;;;;;6.13;1.75;;;;;;;7.73;61.98;98545.91;10511936;28;20047;-66
2023/12/31 08:36:58;;;;;;;3.63;1.98;;;;;;;7.70;61.88;98556.53;10527110;27;20496;-65
2023/12/31 08:42:00;;;;;;;3.38;1.85;;;;;;;7.73;61.91;98537.28;10512744;28;20043;-66
2023/12/31 08:47:02;;;;;;;3.25;1.50;;;;;;;7.80;61.74;98546.31;10512717;28;20032;-65
2023/12/31 08:52:05;;;;;;;3.50;1.98;;;;;;;7.94;61.27;98541.81;10511188;28;20285;-66
2023/12/31 08:57:07;;;;;;;2.33;1.30;;;;;;;8.06;61.29;98531.47;10509386;28;20635;-66
2023/12/31 09:02:09;;;;;;;3.90;2.10;;;;;;;8.06;61.04;98528.88;10513312;28;20692;-66
2023/12/31 09:07:11;;;;;;;1.77;1.40;;;;;;;8.03;60.95;98520.34;10466699;28;20054;-66
2023/12/31 09:12:13;;;;;;;5.18;2.03;;;;;;;8.00;60.90;98519.69;10495473;28;20036;-67
2023/12/31 09:17:15;;;;;;;4.00;1.63;;;;;;;7.95;60.40;98508.81;10511540;28;20052;-66
2023/12/31 09:22:17;;;;;;;5.97;1.80;;;;;;;8.03;60.83;98509.09;10511202;28;20036;-65
2023/12/31 09:27:19;;;;;;;3.25;1.80;;;;;;;8.08;60.71;98514.78;10511002;28;20063;-66
2023/12/31 09:32:21;;;;;;;3.70;1.42;;;;;;;8.13;60.44;98523.13;10511562;28;20044;-66
2023/12/31 09:37:24;;;;;;;2.60;1.52;;;;;;;8.05;59.80;98525.41;10509350;28;20241;-66
2023/12/31 09:42:51;;;;;;;2.90;1.60;;;;;;;8.13;59.87;98517.09;10511190;28;20063;-66
2023/12/31 09:47:56;;;;;;;2.65;1.73;;;;;;;8.18;60.26;98528.81;10510623;28;20071;-65
2023/12/31 09:53:01;;;;;;;2.08;1.60;;;;;;;8.18;60.24;98525.41;10510156;28;20607;-65
2023/12/31 09:58:06;;;;;;;2.00;1.50;;;;;;;8.16;60.43;98520.28;10473766;28;20178;-66
2023/12/31 10:03:10;;;;;;;3.85;1.60;;;;;;;8.33;60.34;98503.44;10478132;28;20070;-72
2023/12/31 10:08:13;;;;;;;2.90;1.63;;;;;;;8.35;60.36;98499.78;10491545;28;20188;-70
2023/12/31 10:13:15;;;;;;;2.70;1.60;;;;;;;8.46;60.42;98501.63;10509978;28;20147;-71
2023/12/31 10:18:19;;;;;;;2.88;1.63;;;;;;;8.43;60.31;98489.63;10509109;28;20036;-71
2023/12/31 10:23:23;;;;;;;4.13;1.80;;;;;;;8.31;60.91;98481.88;10509902;28;20057;-71
2023/12/31 10:28:27;;;;;;;2.92;1.63;;;;;;;8.41;61.11;98457.66;10508798;28;20047;-71
2023/12/31 10:33:29;;;;;;;3.13;1.65;;;;;;;8.40;61.23;98469.03;10509662;28;20048;-70
2023/12/31 10:38:48;;;;;;;3.17;1.65;;;;;;;8.40;62.15;98476.84;10508716;28;20056;-71
2023/12/31 10:43:52;;;;;;;3.55;1.70;;;;;;;8.58;61.60;98469.44;10505433;28;20064;-71
2023/12/31 10:49:05;;;;;;;3.15;1.48;;;;;;;8.77;61.89;98469.72;10498644;28;20043;-71
2023/12/31 10:54:11;;;;;;;5.50;2.28;;;;;;;8.92;61.69;98472.94;10505015;28;20173;-71
2023/12/31 10:59:16;;;;;;;3.67;1.70;;;;;;;9.25;61.55;98452.09;10502133;28;20232;-71
2023/12/31 11:04:20;;;;;;;2.72;1.45;;;;;;;9.47;61.06;98437.25;10503851;28;20070;-72
2023/12/31 11:09:25;;;;;;;3.90;1.40;;;;;;;9.90;60.53;98411.19;10509913;28;20037;-71
2023/12/31 11:14:32;;;;;;;2.67;1.42;;;;;;;10.05;59.92;98419.56;10493429;28;20428;-70
2023/12/31 11:19:40;;;;;;;1.60;1.10;;;;;;;10.04;59.26;98420.50;10499544;28;20056;-71
2023/12/31 11:24:42;;;;;;;1.20;0.82;;;;;;;10.05;59.75;98416.97;10505821;28;20523;-72
2023/12/31 11:29:46;;;;;;;1.90;1.20;;;;;;;10.09;59.45;98428.81;10508334;28;20048;-71
2023/12/31 11:34:52;;;;;;;1.63;1.17;;;;;;;9.95;59.11;98409.03;10507440;28;20611;-71
2023/12/31 11:39:55;;;;;;;2.55;1.48;;;;;;;9.98;58.79;98410.56;10503012;28;20055;-71
2023/12/31 11:44:57;;;;;;;1.60;1.10;;;;;;;10.14;58.61;98408.34;10526249;28;20082;-71
2023/12/31 11:49:59;;;;;;;3.03;1.00;;;;;;;10.25;57.70;98390.03;10511968;28;20189;-71
2023/12/31 11:55:02;;;;;;;1.65;0.95;;;;;;;10.04;58.01;98391.78;10507022;28;20047;-71
2023/12/31 12:00:08;;;;;;;0.82;0.55;;;;;;;9.79;57.16;98379.88;10504449;28;20040;-71
2023/12/31 12:05:10;;;;;;;3.78;1.20;;;;;;;9.76;57.71;98387.16;10485581;28;20087;-71
2023/12/31 12:10:12;;;;;;;4.78;2.03;;;;;;;9.59;57.12;98391.06;10511838;28;20094;-71
2023/12/31 12:15:15;;;;;;;3.67;0.77;;;;;;;9.53;56.67;98381.97;10510046;28;20036;-71
2023/12/31 12:20:17;;;;;;;1.35;0.85;;;;;;;9.58;56.95;98374.56;10510171;28;20130;-70
2023/12/31 12:25:19;;;;;;;1.45;0.80;;;;;;;9.56;56.57;98370.47;10506410;28;20036;-72
2023/12/31 12:30:21;;;;;;;1.30;0.60;;;;;;;9.60;56.59;98377.94;10522448;28;20131;-71
2023/12/31 12:35:27;;;;;;;1.35;1.00;;;;;;;9.67;56.24;98387.91;10507593;28;20393;-71
2023/12/31 12:40:29;;;;;;;1.50;0.73;;;;;;;9.58;56.41;98386.81;10528686;27;20062;-71
2023/12/31 12:45:32;;;;;;;1.52;0.80;;;;;;;9.45;55.48;98386.97;10509570;28;20051;-71
2023/12/31 12:50:35;;;;;;;0.65;0.60;;;;;;;9.62;55.69;98393.47;10493166;28;20036;-70
2023/12/31 12:55:37;;;;;;;0.35;0.35;;;;;;;9.49;55.80;98405.81;10509640;28;20280;-71
2023/12/31 13:00:39;;;;;;;2.42;0.77;;;;;;;9.59;55.84;98399.75;10511299;28;20052;-70
2023/12/31 13:05:41;;;;;;;0.65;0.45;;;;;;;9.53;55.50;98405.44;10491979;28;20083;-70
2023/12/31 13:10:43;;;;;;;0.55;0.32;;;;;;;9.53;54.63;98405.44;10494190;28;20063;-70
2023/12/31 13:15:46;;;;;;;0.50;0.43;;;;;;;9.74;54.98;98417.78;10509567;28;20549;-70
2023/12/31 13:20:48;;;;;;;1.98;0.68;;;;;;;9.50;53.80;98420.53;10509963;28;20044;-72
2023/12/31 13:25:51;;;;;;;0.82;0.50;;;;;;;9.46;54.57;98430.34;10491854;28;20070;-72
2023/12/31 13:30:53;;;;;;;0.30;0.30;;;;;;;9.38;53.65;98445.78;10510977;28;20047;-72
2023/12/31 13:35:55;;;;;;;1.67;0.77;;;;;;;9.23;54.14;98431.34;10509253;28;20036;-68
2023/12/31 13:40:57;;;;;;;2.22;0.50;;;;;;;9.35;53.33;98440.00;10511073;28;20055;-69
2023/12/31 13:45:59;;;;;;;2.10;0.60;;;;;;;9.33;53.04;98449.72;10512457;28;20052;-69
2023/12/31 13:51:04;;;;;;;0.77;0.52;;;;;;;9.43;53.29;98450.66;10512948;28;20087;-69
2023/12/31 13:56:06;;;;;;;0.38;0.38;;;;;;;9.23;51.93;98454.81;10509674;28;20044;-69
2023/12/31 14:01:08;;;;;;;1.10;0.55;;;;;;;9.20;52.54;98454.25;10511677;28;20051;-69
2023/12/31 14:06:11;;;;;;;0.88;0.60;;;;;;;9.20;52.25;98467.28;10509202;28;20044;-69
2023/12/31 14:11:13;;;;;;;4.70;1.15;;;;;;;9.13;52.08;98485.19;10511968;28;20044;-68
2023/12/31 14:16:15;;;;;;;3.55;0.90;;;;;;;9.25;52.58;98476.41;10492398;28;20040;-67
2023/12/31 14:21:17;;;;;;;2.58;0.98;;;;;;;9.31;52.21;98478.53;10512414;28;20052;-67
2023/12/31 14:26:19;;;;;;;4.65;1.55;;;;;;;9.24;52.50;98492.19;10492962;28;20040;-70
2023/12/31 14:31:21;;;;;;;1.58;1.10;;;;;;;9.34;52.41;98486.13;10511705;28;20032;-68
2023/12/31 14:36:23;;;;;;;3.38;1.45;;;;;;;9.37;52.31;98503.31;10493299;28;20142;-70
2023/12/31 14:41:26;;;;;;;4.35;1.20;;;;;;;9.38;52.44;98513.63;10511711;28;20511;-69
2023/12/31 14:46:28;;;;;;;2.72;1.05;;;;;;;9.21;52.38;98514.13;10510325;28;20079;-70
2023/12/31 14:51:30;;;;;;;2.28;0.95;;;;;;;9.06;51.81;98514.44;10512456;28;20504;-69
2023/12/31 14:56:32;;;;;;;1.15;0.65;;;;;;;9.09;52.18;98520.25;10509566;28;20133;-70
2023/12/31 15:01:35;;;;;;;1.08;0.65;;;;;;;9.05;52.34;98524.06;10510693;28;20082;-71
2023/12/31 15:06:37;;;;;;;2.00;0.85;;;;;;;9.00;52.78;98514.88;10502541;28;20044;-70
2023/12/31 15:11:40;;;;;;;5.78;1.08;;;;;;;8.95;52.80;98520.47;10511136;28;20206;-69
2023/12/31 15:16:42;;;;;;;5.07;0.85;;;;;;;8.70;52.73;98521.47;10490705;28;20043;-70
2023/12/31 15:21:44;;;;;;;4.03;1.05;;;;;;;8.52;53.13;98511.59;10525738;28;20586;-69
2023/12/31 15:26:46;;;;;;;2.33;0.90;;;;;;;8.45;53.63;98512.97;10489428;28;20045;-69
2023/12/31 15:31:48;;;;;;;2.45;0.88;;;;;;;8.26;53.81;98523.88;10509718;28;20040;-71
2023/12/31 15:36:50;;;;;;;2.88;1.50;;;;;;;8.26;53.83;98526.50;10490936;28;20135;-71
2023/12/31 15:41:52;;;;;;;1.80;1.00;;;;;;;8.21;54.01;98530.38;10510546;28;20147;-71
2023/12/31 15:46:54;;;;;;;2.67;0.93;;;;;;;8.15;54.17;98543.84;10508204;28;20123;-70
2023/12/31 15:51:56;;;;;;;7.10;1.27;;;;;;;8.04;54.28;98539.38;10509988;28;20504;-70
2023/12/31 15:56:58;;;;;;;4.20;1.10;;;;;;;8.00;54.40;98549.19;10533266;28;20040;-65
2023/12/31 16:02:02;;;;;;;2.95;1.38;;;;;;;8.06;54.74;98558.31;10513161;28;20113;-65
2023/12/31 16:07:04;;;;;;;4.30;1.75;;;;;;;7.95;54.96;98558.25;10512667;28;20102;-65
2023/12/31 16:12:07;;;;;;;6.25;1.30;;;;;;;7.94;54.91;98578.25;10514505;28;20500;-64
2023/12/31 16:17:09;;;;;;;4.32;1.15;;;;;;;7.96;54.72;98562.50;10509164;28;20044;-65
2023/12/31 16:22:11;;;;;;;2.08;1.10;;;;;;;7.98;54.83;98563.22;10498572;28;20056;-65
2023/12/31 16:27:13;;;;;;;3.15;1.95;;;;;;;7.94;55.01;98567.00;10518870;28;20039;-64
2023/12/31 16:32:15;;;;;;;2.58;1.35;;;;;;;7.90;55.05;98570.75;10501932;28;20067;-65
2023/12/31 16:37:17;;;;;;;3.78;1.30;;;;;;;7.89;55.19;98580.34;10519451;28;20056;-64
2023/12/31 16:42:19;;;;;;;6.15;1.08;;;;;;;7.94;54.94;98572.19;10516895;28;20043;-65
2023/12/31 16:47:21;;;;;;;5.88;1.60;;;;;;;7.95;54.94;98571.28;10519266;28;20044;-64
2023/12/31 16:52:23;;;;;;;3.33;0.82;;;;;;;7.99;54.99;98589.19;10518825;28;20056;-65
2023/12/31 16:57:25;;;;;;;2.15;1.23;;;;;;;8.09;54.17;98583.31;10519084;28;20067;-64
2023/12/31 17:02:27;;;;;;;3.92;0.98;;;;;;;8.12;54.46;98590.94;10500979;28;20050;-64
2023/12/31 17:07:29;;;;;;;2.60;1.02;;;;;;;8.12;54.43;98601.38;10518127;28;20048;-65
2023/12/31 17:12:32;;;;;;;1.80;0.90;;;;;;;8.19;54.08;98590.41;10518104;28;20040;-64
2023/12/31 17:17:34;;;;;;;5.22;1.95;;;;;;;8.11;54.16;98594.47;10518553;28;20474;-65
2023/12/31 17:22:37;;;;;;;4.85;1.23;;;;;;;8.00;54.34;98601.25;10495668;28;20551;-65
2023/12/31 17:27:40;;;;;;;8.50;1.73;;;;;;;8.00;54.53;98616.88;10515977;28;20518;-65
2023/12/31 17:32:42;;;;;;;4.25;1.38;;;;;;;7.91;54.41;98633.13;10515811;28;20499;-65
2023/12/31 17:37:44;;;;;;;6.57;1.77;;;;;;;7.93;54.51;98626.06;10516262;28;20239;-65
2023/12/31 17:42:46;;;;;;;2.70;1.10;;;;;;;7.96;54.42;98615.41;10484352;28;20407;-65
2023/12/31 17:47:49;;;;;;;4.50;1.10;;;;;;;8.06;54.44;98617.38;10505962;28;20154;-65
2023/12/31 17:52:51;;;;;;;3.63;1.38;;;;;;;8.22;54.60;98628.41;10512435;28;20055;-65
2023/12/31 17:57:53;;;;;;;1.40;1.30;;;;;;;8.29;54.36;98637.44;10511594;28;20503;-66
2023/12/31 18:02:55;;;;;;;4.20;1.25;;;;;;;8.42;54.46;98628.66;10510397;28;20064;-65
2023/12/31 18:07:58;;;;;;;2.95;1.25;;;;;;;8.26;55.16;98642.88;10511586;28;20143;-64
2023/12/31 18:13:00;;;;;;;5.78;2.47;;;;;;;8.28;55.13;98675.69;10513441;28;20054;-65
2023/12/31 18:18:02;;;;;;;3.78;1.30;;;;;;;8.18;55.88;98677.25;10513151;28;20560;-64
2023/12/31 18:23:05;;;;;;;4.30;1.38;;;;;;;8.09;56.98;98677.03;10515072;28;20047;-63
2023/12/31 18:28:07;;;;;;;2.13;1.08;;;;;;;7.90;57.72;98672.28;10497638;28;20071;-66
2023/12/31 18:33:09;;;;;;;1.42;0.98;;;;;;;7.85;57.94;98669.16;10514996;28;20080;-66
2023/12/31 18:38:12;;;;;;;1.65;1.00;;;;;;;7.73;58.78;98670.81;10514997;28;20044;-65
2023/12/31 18:43:14;;;;;;;3.38;1.48;;;;;;;7.57;58.95;98670.19;10515976;28;20412;-64
2023/12/31 18:48:16;;;;;;;1.63;1.10;;;;;;;7.51;59.30;98677.59;10514687;28;20122;-64
2023/12/31 18:53:18;;;;;;;3.05;1.55;;;;;;;7.46;59.21;98679.66;10514950;28;20190;-65
2023/12/31 18:58:20;;;;;;;7.68;1.92;;;;;;;7.35;59.21;98685.56;10496596;28;20131;-65
2023/12/31 19:03:22;;;;;;;2.50;1.33;;;;;;;7.31;59.40;98684.09;10516142;28;20060;-65
2023/12/31 19:08:24;;;;;;;1.15;0.88;;;;;;;7.38;59.17;98685.38;10498162;28;20139;-64
2023/12/31 19:13:26;;;;;;;2.17;1.13;;;;;;;7.42;59.21;98686.84;10516210;28;20048;-65
2023/12/31 19:18:28;;;;;;;2.80;1.00;;;;;;;7.54;58.76;98701.63;10512927;28;20131;-65
2023/12/31 19:23:30;;;;;;;1.67;0.98;;;;;;;7.64;58.53;98697.47;10497963;28;20059;-64
2023/12/31 19:28:32;;;;;;;3.15;0.65;;;;;;;7.64;58.48;98710.50;10518787;28;20055;-65
2023/12/31 19:33:34;;;;;;;1.92;0.82;;;;;;;7.68;58.42;98717.16;10523240;28;20043;-64
2023/12/31 19:38:36;;;;;;;2.85;1.02;;;;;;;7.57;58.46;98739.63;10522730;28;20101;-65
2023/12/31 19:43:38;;;;;;;3.03;1.02;;;;;;;7.32;58.98;98721.34;10523326;28;20052;-65
2023/12/31 19:49:00;;;;;;;2.53;1.25;;;;;;;7.27;59.16;98719.06;10504437;28;20059;-65
2023/12/31 19:54:02;;;;;;;2.78;1.20;;;;;;;7.24;59.32;98734.88;10503594;28;20669;-65
2023/12/31 19:59:08;;;;;;;2.35;0.90;;;;;;;7.25;59.62;98723.53;10522203;28;20880;-65
2023/12/31 20:04:10;;;;;;;1.10;0.70;;;;;;;7.33;59.51;98723.84;10521531;28;20143;-64
2023/12/31 20:09:13;;;;;;;2.20;0.95;;;;;;;7.31;59.67;98722.28;10521944;28;20118;-65
2023/12/31 20:14:15;;;;;;;1.63;0.82;;;;;;;7.20;59.84;98717.81;10503975;28;20155;-65
2023/12/31 20:19:17;;;;;;;0.77;0.77;;;;;;;7.31;59.49;98712.72;10522096;28;20098;-64
2023/12/31 20:24:20;;;;;;;2.30;0.70;;;;;;;7.24;59.55;98702.81;10520837;28;20102;-65
2023/12/31 20:29:24;;;;;;;3.25;1.00;;;;;;;7.19;59.50;98700.53;10521730;28;20067;-65
2023/12/31 20:34:26;;;;;;;2.30;1.00;;;;;;;7.21;59.37;98709.06;10520809;28;20040;-65
2023/12/31 20:39:28;;;;;;;1.02;0.93;;;;;;;7.17;59.57;98712.78;10520256;28;20139;-64
2023/12/31 20:44:30;;;;;;;1.83;1.05;;;;;;;7.18;59.20;98714.47;10519829;28;20074;-64
2023/12/31 20:49:34;;;;;;;3.90;1.02;;;;;;;7.13;59.25;98695.72;10517568;28;20062;-65
2023/12/31 20:54:36;;;;;;;1.10;0.63;;;;;;;7.19;59.19;98705.72;10519294;28;20462;-66
2023/12/31 20:59:41;;;;;;;1.00;0.60;;;;;;;7.20;59.15;98712.59;10502247;28;20075;-64
2023/12/31 21:04:43;;;;;;;2.17;0.95;;;;;;;7.23;59.35;98719.34;10520015;28;20082;-65
2023/12/31 21:09:45;;;;;;;3.05;1.15;;;;;;;7.27;59.00;98703.44;10518258;28;20097;-65
2023/12/31 21:14:47;;;;;;;0.90;0.80;;;;;;;7.25;58.92;98699.28;10485672;28;20127;-66
2023/12/31 21:19:49;;;;;;;1.92;0.90;;;;;;;7.21;59.39;98709.06;10519925;28;20139;-65
2023/12/31 21:24:51;;;;;;;3.47;1.25;;;;;;;7.10;60.19;98698.53;10518777;28;20040;-65
2023/12/31 21:29:53;;;;;;;1.30;0.75;;;;;;;7.19;59.98;98701.34;10519255;28;20503;-65
2023/12/31 21:34:55;;;;;;;1.80;0.95;;;;;;;7.20;60.07;98703.00;10518630;28;20044;-65
2023/12/31 21:39:57;;;;;;;2.95;0.80;;;;;;;7.29;60.02;98693.78;10475356;28;20060;-65
2023/12/31 21:44:59;;;;;;;2.83;1.05;;;;;;;7.33;59.86;98700.44;10476555;28;20059;-65
2023/12/31 21:50:01;;;;;;;2.58;1.08;;;;;;;7.32;60.01;98691.00;10475941;28;20064;-65
2023/12/31 21:55:05;;;;;;;1.98;1.10;;;;;;;7.31;59.74;98699.72;10476023;28;20134;-65
2023/12/31 22:00:20;;;;;;;4.35;1.13;;;;;;;7.40;59.69;98722.53;10475955;28;20415;-65
2023/12/31 22:05:22;;;;;;;1.48;1.10;;;;;;;7.53;59.51;98722.56;10476167;28;20048;-65
2023/12/31 22:10:24;;;;;;;2.80;1.00;;;;;;;7.36;59.89;98720.22;10475654;28;20044;-65
2023/12/31 22:15:28;;;;;;;1.67;1.10;;;;;;;7.47;59.73;98734.19;10474109;28;20048;-65
2023/12/31 22:20:30;;;;;;;1.20;0.95;;;;;;;7.49;59.82;98744.50;10475299;28;20576;-65
2023/12/31 22:25:33;;;;;;;1.92;0.82;;;;;;;7.61;59.63;98734.09;10473748;28;20062;-65
2023/12/31 22:30:35;;;;;;;2.38;1.27;;;;;;;7.60;59.58;98732.44;10475171;28;20049;-65
2023/12/31 22:35:37;;;;;;;5.43;1.40;;;;;;;7.60;59.66;98736.81;10474120;28;20044;-65
2023/12/31 22:40:40;;;;;;;0.88;0.75;;;;;;;7.66;59.61;98732.03;10516089;28;20408;-65
2023/12/31 22:45:42;;;;;;;5.43;0.88;;;;;;;7.57;59.69;98732.63;10531385;28;20044;-65
2023/12/31 22:50:44;;;;;;;1.80;1.00;;;;;;;7.52;59.82;98731.28;10516505;28;20513;-65
2023/12/31 22:55:46;;;;;;;2.47;1.05;;;;;;;7.51;59.79;98722.63;10516173;28;20043;-65
2023/12/31 23:00:48;;;;;;;0.82;0.73;;;;;;;7.51;59.73;98727.03;10515687;28;20511;-65
2023/12/31 23:05:51;;;;;;;58.10;31.17;;;;;;;7.62;59.43;98725.38;10524116;28;20399;-65
2023/12/31 23:10:53;;;;;;;9.98;4.22;;;;;;;7.66;59.30;98734.63;10524516;28;20036;-64
2023/12/31 23:15:55;;;;;;;3.13;1.67;;;;;;;7.70;59.07;98736.09;10524446;28;20403;-65
2023/12/31 23:20:57;;;;;;;5.05;2.50;;;;;;;7.82;59.05;98727.47;10506450;28;20040;-64
2023/12/31 23:26:00;;;;;;;3.38;2.05;;;;;;;7.84;59.02;98719.53;10523972;28;20402;-65
2023/12/31 23:31:03;;;;;;;2.85;1.42;;;;;;;7.67;59.36;98725.06;10522751;28;20044;-65
2023/12/31 23:36:05;;;;;;;5.40;1.58;;;;;;;7.76;59.29;98729.63;10523371;28;20052;-64
2023/12/31 23:41:07;;;;;;;5.15;1.50;;;;;;;7.61;59.48;98728.91;10522592;28;20514;-64
2023/12/31 23:46:10;;;;;;;3.85;1.65;;;;;;;7.46;59.55;98729.09;10522175;28;20040;-65